CheckWX is a tool to help pilots better visualize weather data.  It is not intended as a substitute for an official pre-flight weather briefing.

06:06:44 UTC

EGPO METAR
Stornoway Airport
Stornoway, United Kingdom
Current

17 mins ago

EGPO 290550Z 15005KT CAVOK 13/12 Q1026
Observed
May-29 @ 05:50 UTC
Wind
  • 150° at 5 KTS
Visibility
10,000+ meters
Flight Rules
VFR
Cloud Levels
  • Clear skies
Temperature
13°C / 55°F
Dewpoint
12°C / 54°F
Humidity
94%
Altimeter
30.3" Hg
Pressure
1025.92 hPa
Previous

47 mins ago

EGPO 290520Z VRB02KT CAVOK 12/11 Q1026
Observed
May-29 @ 05:20 UTC
Wind
  • Variable at 2 KTS
Visibility
10,000+ meters
Flight Rules
VFR
Cloud Levels
  • Clear skies
Temperature
12°C / 54°F
Dewpoint
11°C / 52°F
Humidity
94%
Altimeter
30.3" Hg
Pressure
1025.92 hPa
Previous

1 hour ago

EGPO 290450Z AUTO 12004KT 100V180 9999 NCD 11/10 Q1026
Observed
May-29 @ 04:50 UTC
Wind
  • 120° at 4 KTS
Visibility
10,000+ meters
Flight Rules
VFR
Cloud Levels
  • Clear skies
Temperature
11°C / 52°F
Dewpoint
10°C / 50°F
Humidity
94%
Altimeter
30.3" Hg
Pressure
1025.92 hPa